Latest Weather Observations for Broken Hill Airport

IDN60801

Issued at 2:02 pm EST Thursday 3 September 2015 (issued every 30 minutes, with the page automatically refreshed every 10 minutes)

About weather observations | Map of weather stations | Latest weather observations for NSW | Other Formats
Station Details ID: 047048 Name: BROKEN HILL AIRPORT AWS Lat: -32.00 Lon: 141.47 Height: 281.3 m
Data from the previous 72 hours. | See also: Recent months at Broken Hill Airport
Date/Time
EST
Temp
°C
App
Temp
°C
Dew
Point
Rel
Hum
%
Delta-T
°C
Wind Press
QNH
hPa
Press
MSL
hPa
Rain
since 9 am
mm
Dir
 
Spd
km/h
Gust
km/h
Spd
kts
Gust
kts
03/02:00pm 14.5 8.6 8.9 69 2.9 SW 30 39 16 21 1018.7 1018.4 0.2
03/01:30pm 13.0 7.4 8.7 75 2.2 SW 28 33 15 18 1018.7 1018.4 0.2
03/01:00pm 13.0 6.8 9.4 79 1.9 SW 32 43 17 23 1018.9 1018.6 0.2
03/12:30pm 13.1 7.7 9.5 79 1.9 SSW 28 37 15 20 1018.6 1018.3 0.2
03/12:00pm 12.3 5.7 8.6 78 1.9 SSW 33 50 18 27 1018.5 1018.2 0.2
03/11:59am 12.2 5.7 8.3 77 2.0 SSW 32 50 17 27 1018.5 1018.2 0.2
03/11:42am 11.7 6.0 8.4 80 1.7 SW 28 41 15 22 1018.6 1018.3 0.2
03/11:30am 11.1 4.1 8.5 84 1.3 SW 35 46 19 25 1018.6 1018.3 0.2
03/11:00am 10.7 4.9 9.5 92 0.6 SW 30 39 16 21 1018.3 1018.0 0.2
03/10:47am 10.3 4.5 9.4 94 0.5 SW 30 41 16 22 1018.2 1017.9 0.2
03/10:30am 9.8 3.8 8.7 93 0.5 SW 30 39 16 21 1018.1 1017.8 0.2
03/10:08am 10.2 3.2 8.5 89 0.8 SW 35 43 19 23 1018.0 1017.7 0.0
03/10:05am 10.4 3.4 8.3 87 1.0 SW 35 43 19 23 1017.9 1017.6 0.0
03/10:00am 10.8 3.7 8.0 83 1.4 SW 35 46 19 25 1017.9 1017.6 0.0
03/09:30am 10.2 3.4 7.6 84 1.3 SW 33 43 18 23 1017.5 1017.2 5.6
03/09:18am 10.0 2.0 7.4 84 1.3 SW 39 54 21 29 1017.1 1016.7 5.6
03/09:12am 9.9 2.6 7.0 82 1.4 SW 35 54 19 29 1017.0 1016.6 5.6
03/09:00am 9.8 3.2 7.7 87 1.0 SW 32 44 17 24 1016.8 1016.4 5.6
03/08:30am 9.5 3.2 7.6 88 0.9 SW 30 37 16 20 1016.3 1015.9 5.6
03/08:04am 9.2 2.5 7.5 89 0.8 SW 32 39 17 21 1015.5 1015.1 5.6
03/08:00am 9.2 2.9 7.5 89 0.8 SW 30 39 16 21 1015.3 1015.0 5.6
03/07:30am 9.0 2.3 7.5 90 0.7 SW 32 39 17 21 1014.5 1014.2 5.6
03/07:00am 9.3 2.5 7.9 91 0.7 SW 33 43 18 23 1013.5 1013.1 5.6
03/06:30am 9.4 2.7 8.3 93 0.5 SW 33 44 18 24 1012.7 1012.3 5.6
03/06:00am 9.2 2.1 8.1 93 0.5 SW 35 44 19 24 1011.8 1011.4 5.6
03/05:30am 9.3 1.1 8.1 92 0.6 SSW 41 56 22 30 1010.4 1010.0 5.6
03/05:02am 9.3 1.9 8.4 94 0.4 SSW 37 56 20 30 1009.7 1009.3 5.6
03/05:00am 9.4 1.7 8.5 94 0.4 SW 39 52 21 28 1009.7 1009.3 5.6
03/04:34am 9.3 2.7 8.5 95 0.4 SW 33 52 18 28 1009.0 1008.6 5.6
03/04:33am 9.3 2.7 8.5 95 0.4 SW 33 44 18 24 1009.0 1008.6 5.6
03/04:30am 9.3 2.9 8.5 95 0.4 SW 32 44 17 24 1008.9 1008.5 5.6
03/04:00am 9.1 3.4 8.3 95 0.4 WSW 28 35 15 19 1008.1 1007.6 5.6
03/03:50am 9.1 2.4 8.3 95 0.4 WSW 33 46 18 25 1007.9 1007.5 5.2
03/03:30am 9.0 2.5 8.1 94 0.4 WSW 32 41 17 22 1007.5 1007.1 5.2
03/03:23am 9.0 2.3 8.1 94 0.4 WSW 33 44 18 24 1007.4 1007.0 5.2
03/03:00am 8.8 1.7 7.9 94 0.4 WSW 35 50 19 27 1006.8 1006.4 5.2
03/02:30am 8.9 0.6 7.8 93 0.5 W 41 52 22 28 1006.3 1005.9 5.2
03/02:00am 8.9 2.1 7.7 92 0.6 WNW 33 50 18 27 1006.1 1005.7 5.0
03/01:42am 9.0 2.2 7.8 92 0.6 WNW 33 43 18 23 1006.1 1005.7 5.0
03/01:30am 9.0 2.4 7.8 92 0.6 WNW 32 44 17 24 1006.1 1005.7 5.0
03/01:22am 9.0 2.4 7.6 91 0.7 WNW 32 43 17 23 1006.2 1005.8 4.8
03/01:00am 9.2 2.0 7.5 89 0.8 WNW 35 44 19 24 1006.2 1005.8 4.8
03/12:30am 9.5 2.2 7.4 87 1.0 WNW 35 50 19 27 1006.3 1005.9 4.8
03/12:00am 9.1 2.4 7.2 88 0.9 WNW 32 43 17 23 1006.3 1005.9 4.8
 
Date/Time
EST
Temp
°C
App
Temp
°C
Dew
Point
Rel
Hum
%
Delta-T
°C
Wind Press
QNH
hPa
Press
MSL
hPa
Rain
since 9 am
mm
Dir
 
Spd
km/h
Gust
km/h
Spd
kts
Gust
kts
02/11:30pm 8.9 2.2 7.2 89 0.8 NW 32 43 17 23 1006.4 1006.0 4.8
02/11:00pm 8.7 2.3 7.0 89 0.8 NW 30 39 16 21 1006.4 1006.0 4.8
02/10:30pm 8.4 2.8 7.0 91 0.7 NW 26 39 14 21 1006.5 1006.1 4.8
02/10:00pm 8.3 2.6 6.6 89 0.8 NW 26 37 14 20 1006.6 1006.2 4.8
02/09:46pm 8.7 2.3 6.8 88 0.9 NW 30 41 16 22 1006.6 1006.2 4.0
02/09:31pm 9.3 0.3 6.6 83 1.3 WNW 43 70 23 38 1006.6 1006.2 3.4
02/09:30pm 9.3 0.1 6.4 82 1.4 WNW 44 70 24 38 1006.6 1006.2 3.2
02/09:24pm 10.1 1.4 5.9 75 2.0 NW 41 70 22 38 1006.7 1006.3 3.2
02/09:21pm 13.2 6.3 7.2 67 3.0 NW 33 61 18 33 1006.4 1006.0 2.8
02/09:00pm 13.3 7.0 5.9 61 3.6 NW 28 41 15 22 1005.7 1005.3 2.8
02/08:30pm 13.5 7.5 5.4 58 3.9 NW 26 37 14 20 1005.7 1005.3 2.8
02/08:00pm 13.3 8.4 5.2 58 3.8 NNW 20 28 11 15 1005.7 1005.3 2.8
02/07:30pm 13.4 8.6 4.8 56 4.0 NNW 19 28 10 15 1006.2 1005.8 2.8
02/07:00pm 13.2 8.2 4.6 56 4.0 NW 20 32 11 17 1006.3 1005.9 2.8
02/06:30pm 13.7 7.9 4.6 54 4.3 NW 24 35 13 19 1006.1 1005.7 2.8
02/06:01pm 14.4 7.8 4.4 51 4.7 WNW 28 46 15 25 1005.8 1005.4 2.8
02/06:00pm 14.4 8.2 4.4 51 4.7 WNW 26 46 14 25 1005.8 1005.4 2.8
02/05:30pm 15.0 8.2 3.2 45 5.4 WNW 28 43 15 23 1005.7 1005.3 2.8
02/05:00pm 15.3 7.2 3.1 44 5.6 WNW 35 50 19 27 1005.7 1005.3 2.8
02/04:54pm 15.7 8.0 2.2 40 6.1 WNW 32 50 17 27 1005.6 1005.2 2.8
02/04:30pm 16.0 8.2 4.7 47 5.4 WNW 35 50 19 27 1005.6 1005.2 2.8
02/04:25pm 16.1 8.7 4.2 45 5.6 WNW 32 50 17 27 1005.6 1005.2 2.8
02/04:00pm 15.8 8.5 4.5 47 5.4 NW 32 41 17 22 1005.6 1005.2 2.8
02/03:30pm 15.4 8.7 5.6 52 4.8 WNW 30 41 16 22 1005.9 1005.5 2.8
02/03:11pm 15.8 9.6 6.3 53 4.7 WNW 28 46 15 25 1005.9 1005.5 2.8
02/03:00pm 14.4 9.9 8.6 68 3.0 NW 22 33 12 18 1006.0 1005.6 2.8
02/02:30pm 14.7 9.6 7.7 63 3.5 W 24 35 13 19 1006.2 1005.8 2.8
02/02:00pm 14.6 9.9 9.4 71 2.7 WNW 24 32 13 17 1006.3 1005.9 2.8
02/01:35pm 12.9 10.3 9.2 78 1.9 WNW 13 22 7 12 1006.4 1006.0 2.8
02/01:30pm 12.6 10.3 8.9 78 1.9 NW 11 17 6 9 1006.5 1006.1 2.8
02/01:04pm 11.3 9.6 9.7 90 0.8 W 9 13 5 7 1006.8 1006.4 2.8
02/01:00pm 10.8 9.3 9.2 90 0.8 W 7 11 4 6 1006.8 1006.4 2.8
02/12:30pm 10.5 8.2 9.1 91 0.7 WSW 11 15 6 8 1006.7 1006.3 2.8
02/12:10pm 10.1 7.4 9.0 93 0.6 SE 13 17 7 9 1006.6 1006.2 2.8
02/12:00pm 9.7 7.7 8.5 92 0.6 SSW 9 11 5 6 1007.9 1007.5 2.6
02/11:34am 9.9 6.0 8.7 92 0.6 WSW 19 24 10 13 1008.8 1008.4 2.0
02/11:30am 10.1 6.3 8.9 92 0.6 WSW 19 24 10 13 1008.9 1008.5 1.8
02/11:00am 10.4 5.3 7.8 84 1.3 W 24 30 13 16 1009.3 1008.9 0.4
02/10:41am 11.2 3.9 7.3 77 1.9 W 35 48 19 26 1008.1 1007.6 0.0
02/10:30am 12.7 5.1 7.6 71 2.5 W 37 50 20 27 1008.5 1008.1 0.0
02/10:16am 15.1 7.7 4.2 48 5.1 WNW 32 46 17 25 1008.5 1008.1 0.0
02/10:00am 16.4 11.6 4.4 45 5.7 NW 19 28 10 15 1007.8 1007.4 0.0
02/09:30am 16.0 11.4 3.8 44 5.7 N 17 24 9 13 1007.5 1007.1 0.2
02/09:00am 13.4 11.0 7.0 65 3.2 NW 9 11 5 6 1008.2 1007.8 0.2
02/08:30am 12.8 8.9 5.5 61 3.5 N 15 28 8 15 1008.5 1008.1 0.2
02/08:00am 13.3 7.6 2.8 49 4.7 N 22 33 12 18 1008.6 1008.2 0.0
02/07:30am 14.1 7.3 0.7 40 5.8 NNE 26 35 14 19 1007.7 1007.3 0.0
02/07:00am 13.8 7.5 1.5 43 5.4 NNE 24 32 13 17 1007.5 1007.1 0.0
02/06:30am 14.4 7.6 0.6 39 6.0 NNE 26 33 14 18 1007.9 1007.5 0.0
02/06:00am 14.4 8.4 1.0 40 5.9 NNE 22 30 12 16 1008.2 1007.8 0.0
02/05:30am 13.7 8.2 2.0 45 5.2 NNE 20 30 11 16 1008.7 1008.3 0.0
02/05:00am 13.6 8.1 1.6 44 5.3 NNE 20 26 11 14 1008.6 1008.2 0.0
02/04:30am 13.3 7.8 1.9 46 5.0 NNE 20 28 11 15 1008.6 1008.2 0.0
02/04:00am 13.2 7.0 2.4 48 4.8 NNE 24 32 13 17 1008.6 1008.2 0.0
02/03:30am 13.1 7.4 2.6 49 4.7 NNE 22 30 12 16 1009.1 1008.7 0.0
02/03:00am 12.9 5.8 3.3 52 4.4 NNE 30 43 16 23 1009.3 1008.9 0.0
02/02:30am 13.0 6.5 2.5 49 4.7 NNE 26 32 14 17 1009.8 1009.4 0.0
02/02:00am 13.1 7.0 2.6 49 4.7 NNE 24 30 13 16 1010.3 1009.9 0.0
02/01:30am 12.8 6.6 2.1 48 4.7 NNE 24 32 13 17 1010.8 1010.4 0.0
02/01:00am 12.8 6.1 1.5 46 4.9 NNE 26 33 14 18 1010.9 1010.5 0.0
02/12:30am 12.8 6.4 1.2 45 5.0 NNE 24 32 13 17 1011.2 1010.9 0.0
02/12:00am 13.5 7.1 0.9 42 5.4 NNE 24 30 13 16 1011.5 1011.2 0.0
 
Date/Time
EST
Temp
°C
App
Temp
°C
Dew
Point
Rel
Hum
%
Delta-T
°C
Wind Press
QNH
hPa
Press
MSL
hPa
Rain
since 9 am
mm
Dir
 
Spd
km/h
Gust
km/h
Spd
kts
Gust
kts
01/11:30pm 12.8 7.2 0.9 44 5.1 NE 20 24 11 13 1011.9 1011.5 0.0
01/11:00pm 13.9 8.1 0.2 39 5.8 NNE 20 26 11 14 1012.3 1011.9 0.0
01/10:30pm 14.5 8.9 0.0 37 6.2 NNE 19 24 10 13 1012.5 1012.1 0.0
01/10:00pm 14.6 9.3 -0.3 36 6.3 NNE 17 20 9 11 1012.5 1012.1 0.0
01/09:30pm 15.2 10.0 0.2 36 6.5 NNE 17 22 9 12 1012.5 1012.1 0.0
01/09:00pm 15.7 10.0 0.3 35 6.7 NNE 20 26 11 14 1012.5 1012.1 0.0
01/08:30pm 14.5 9.7 2.7 45 5.3 NE 17 19 9 10 1012.2 1011.8 0.0
01/08:00pm 15.5 11.4 2.3 41 6.0 NNE 13 17 7 9 1012.3 1011.9 0.0
01/07:30pm 16.2 10.9 -0.9 31 7.3 NNE 17 20 9 11 1012.3 1011.9 0.0
01/07:00pm 16.5 11.1 -1.6 29 7.6 NNE 17 26 9 14 1012.5 1012.1 0.0
01/06:30pm 16.4 11.9 -0.3 32 7.2 NE 13 15 7 8 1012.3 1011.9 0.0
01/06:00pm 17.0 11.2 -1.6 28 7.9 N 19 28 10 15 1012.4 1012.0 0.0
01/05:30pm 17.2 10.8 -1.9 27 8.0 N 22 37 12 20 1012.7 1012.3 0.0
01/05:00pm 17.8 10.9 -2.5 25 8.5 NNW 24 35 13 19 1012.7 1012.3 0.0
01/04:30pm 18.5 12.2 -3.6 22 9.1 NNW 20 32 11 17 1012.8 1012.4 0.0
01/04:00pm 20.1 14.3 -1.7 23 9.5 N 19 30 10 16 1013.0 1012.6 0.0
01/03:30pm 19.5 13.6 -2.2 23 9.3 N 19 26 10 14 1013.2 1012.8 0.0
01/03:00pm 20.2 14.8 -1.6 23 9.5 N 17 26 9 14 1013.2 1012.8 0.0
01/02:30pm 19.7 14.6 -2.0 23 9.3 N 15 20 8 11 1013.4 1013.0 0.0
01/02:00pm 18.9 13.4 -2.1 24 8.9 NNE 17 26 9 14 1013.7 1013.3 0.0
01/01:30pm 18.5 12.6 -1.9 25 8.7 NNE 19 30 10 16 1014.5 1014.2 0.0
01/01:00pm 18.9 13.8 0.5 29 8.3 N 17 22 9 12 1015.0 1014.7 0.0
01/12:30pm 18.1 13.1 -1.2 27 8.3 N 15 26 8 14 1015.6 1015.2 0.0
01/12:00pm 18.2 13.7 -0.1 29 8.1 NNE 13 22 7 12 1015.9 1015.5 0.0
01/11:30am 18.3 12.9 -1.0 27 8.4 NNW 17 24 9 13 1016.4 1016.0 0.0
01/11:00am 17.8 13.0 0.0 30 7.8 N 15 20 8 11 1016.8 1016.4 0.0
01/10:30am 17.4 11.7 -0.8 29 7.8 N 19 26 10 14 1017.1 1016.7 0.0
01/10:00am 16.8 11.6 0.0 32 7.3 N 17 24 9 13 1017.0 1016.6 0.0
01/09:30am 15.3 10.7 1.8 40 6.0 NNE 15 20 8 11 1017.1 1017.1 0.0
01/09:00am 13.5 9.0 2.1 46 5.0 NNE 15 17 8 9 1017.0 1017.0 0.0
01/08:30am 12.0 7.8 1.6 49 4.5 NNE 13 19 7 10 1017.0 1017.0 0.0
01/08:00am 10.5 6.2 1.1 52 4.0 NNE 13 17 7 9 1017.1 1017.1 0.0
01/07:30am 6.4 2.8 2.7 77 1.6 NE 11 13 6 7 1017.1 1017.1 0.0
01/07:00am 4.5 0.2 1.2 79 1.3 NE 13 15 7 8 1017.0 1017.0 0.0
01/06:30am 7.1 2.9 1.6 68 2.3 NNE 13 17 7 9 1016.9 1016.9 0.0
01/06:00am 5.8 0.8 1.3 73 1.8 NE 17 17 9 9 1016.6 1016.6 0.0
01/05:30am 4.9 1.0 1.0 76 1.5 NE 11 13 6 7 1016.6 1016.6 0.0
01/05:00am 5.1 0.8 0.9 74 1.7 ENE 13 15 7 8 1016.4 1016.4 0.0
01/04:30am 8.9 4.5 0.4 55 3.5 NNE 13 17 7 9 1016.8 1016.8 0.0
01/04:00am 9.1 4.4 0.8 56 3.4 NNE 15 17 8 9 1016.6 1016.6 0.0
01/03:30am 8.7 4.0 0.9 58 3.2 NNE 15 17 8 9 1016.6 1016.6 0.0
01/03:00am 9.6 5.3 1.3 56 3.5 NNE 13 17 7 9 1016.9 1016.9 0.0
01/02:30am 9.2 4.2 1.6 59 3.2 NNE 17 19 9 10 1017.2 1017.3 0.0
01/02:00am 5.6 2.2 2.1 78 1.4 NE 9 11 5 6 1017.6 1017.7 0.0
01/01:30am 5.9 2.1 2.0 76 1.6 NE 11 15 6 8 1017.9 1018.0 0.0
01/01:00am 5.5 2.1 1.6 76 1.6 NNE 9 11 5 6 1018.2 1018.3 0.0
01/12:30am 6.3 2.9 2.0 74 1.8 NE 9 13 5 7 1018.4 1018.5 0.0
01/12:00am 7.0 3.6 2.1 71 2.0 ENE 9 13 5 7 1018.6 1018.7 0.0
 
Date/Time
EST
Temp
°C
App
Temp
°C
Dew
Point
Rel
Hum
%
Delta-T
°C
Wind Press
QNH
hPa
Press
MSL
hPa
Rain
since 9 am
mm
Dir
 
Spd
km/h
Gust
km/h
Spd
kts
Gust
kts
31/11:30pm 9.1 5.5 0.8 56 3.4 NNW 9 13 5 7 1018.9 1019.0 0.0
31/11:00pm 11.3 7.3 0.4 47 4.5 NW 11 13 6 7 1019.1 1019.2 0.0
31/10:30pm 11.6 7.6 0.7 47 4.6 NNW 11 15 6 8 1019.4 1019.4 0.0
31/10:00pm 12.1 8.1 0.5 45 4.9 NNW 11 13 6 7 1019.3 1019.3 0.0
31/09:30pm 12.1 8.1 0.5 45 4.9 NNW 11 13 6 7 1019.3 1019.3 0.0
31/09:00pm 12.4 8.4 0.5 44 5.0 NNW 11 15 6 8 1019.5 1019.5 0.0
31/08:30pm 13.1 9.4 0.2 41 5.5 NNW 9 11 5 6 1019.3 1019.3 0.0
31/08:00pm 11.2 8.3 1.7 52 4.1 NNW 6 7 3 4 1019.1 1019.2 0.0
31/07:30pm 13.1 10.1 0.8 43 5.3 NW 6 7 3 4 1018.9 1019.0 0.0
31/07:00pm 13.8 10.6 -0.6 37 6.0 WSW 6 7 3 4 1018.6 1018.7 0.0
31/06:30pm 14.1 10.8 0.0 38 6.0 WSW 7 9 4 5 1018.5 1018.6 0.0
31/06:00pm 15.8 12.2 0.4 35 6.7 WSW 9 11 5 6 1018.4 1018.5 0.0
31/05:30pm 17.0 12.9 -0.2 31 7.5 W 11 15 6 8 1018.5 1018.6 0.0
31/05:00pm 17.2 13.4 -1.0 29 7.8 WSW 9 17 5 9 1018.4 1018.5 0.0
31/04:30pm 17.5 14.3 -0.2 30 7.7 W 6 17 3 9 1018.5 1018.6 0.0
31/04:00pm 16.9 12.7 -1.2 29 7.7 SW 11 17 6 9 1018.6 1018.7 0.0
31/03:30pm 17.2 13.0 -1.0 29 7.8 WSW 11 19 6 10 1018.9 1019.0 0.0
31/03:00pm 17.0 12.2 0.2 32 7.4 WSW 15 24 8 13 1019.1 1019.2 0.0

Other Formats:

Comma delimited format used in spreadsheet applications
http://www.bom.gov.au/fwo/IDN60801/IDN60801.94691.axf

JavaScript Object Notation format (JSON) in row-major order
http://www.bom.gov.au/fwo/IDN60801/IDN60801.94691.json